Time;durP1;ratioP1;P1;durP2;ratioP2;P2;SDS_P1;SDS_P2;PMS_P1;PMS_P2;Temp;Humidity;BMP_temperature;BMP_pressure;BME280_temperature;BME280_humidity;BME280_pressure;Samples;Min_cycle;Max_cycle;Signal;HPM_P1;HPM_P2
2021/12/25 00:00:55;;;;;;;;;17.75;15.25;;;;;3.68;96.58;100608.50;5004591;28;11615;-72
2021/12/25 00:03:22;;;;;;;;;27.75;23.75;;;;;3.39;95.32;100605.16;4996703;28;11533;-71
2021/12/25 00:05:52;;;;;;;;;24.00;17.25;;;;;3.49;96.58;100605.13;4996221;28;11618;-72
2021/12/25 00:08:20;;;;;;;;;19.75;18.50;;;;;3.38;96.00;100615.00;4993835;28;11524;-73
2021/12/25 00:10:46;;;;;;;;;18.00;14.50;;;;;3.31;96.28;100618.44;5004292;28;11649;-72
2021/12/25 00:13:14;;;;;;;;;19.75;14.00;;;;;3.27;96.22;100623.25;4996740;28;11541;-72
2021/12/25 00:15:42;;;;;;;;;15.25;11.50;;;;;3.52;97.00;100619.03;5010928;28;12384;-72
2021/12/25 00:18:09;;;;;;;;;16.75;16.25;;;;;3.30;95.74;100624.78;4987268;28;11550;-73
2021/12/25 00:20:36;;;;;;;;;26.75;19.75;;;;;3.22;95.97;100620.19;5010426;28;11700;-71
2021/12/25 00:23:05;;;;;;;;;22.50;17.25;;;;;3.24;96.20;100623.53;4995028;28;11526;-71
2021/12/25 00:25:35;;;;;;;;;14.25;14.25;;;;;3.38;96.10;100628.38;5004512;28;11584;-69
2021/12/25 00:28:55;;;;;;;;;18.75;14.25;;;;;3.47;95.53;100629.34;4995096;28;11519;-70
2021/12/25 00:36:13;;;;;;;;;19.50;17.75;;;;;3.23;95.43;100627.22;5010170;28;11512;-71
2021/12/25 00:38:42;;;;;;;;;16.00;15.00;;;;;3.23;95.48;100629.88;4972442;28;11660;-71
2021/12/25 00:41:10;;;;;;;;;20.50;18.75;;;;;3.31;95.46;100629.13;5004524;28;11504;-73
2021/12/25 00:43:37;;;;;;;;;19.00;15.25;;;;;3.31;95.47;100631.81;4988140;28;12280;-72
2021/12/25 00:46:04;;;;;;;;;19.25;18.75;;;;;3.37;94.99;100626.72;4975810;28;12268;-73
2021/12/25 00:48:31;;;;;;;;;26.50;24.00;;;;;3.04;94.36;100625.44;4995085;28;11573;-73
2021/12/25 00:50:59;;;;;;;;;26.50;21.00;;;;;3.04;95.68;100620.09;4986316;28;11628;-70
2021/12/25 00:53:27;;;;;;;;;27.50;15.50;;;;;3.01;95.67;100627.56;4997390;28;12423;-71
2021/12/25 00:55:53;;;;;;;;;23.75;19.50;;;;;3.10;95.73;100626.69;4997000;28;11636;-72
2021/12/25 00:58:21;;;;;;;;;24.75;19.50;;;;;3.00;95.16;100631.22;4996275;28;11530;-72
2021/12/25 01:00:49;;;;;;;;;27.50;21.00;;;;;3.14;95.27;100630.75;4993236;28;11608;-71
2021/12/25 01:03:16;;;;;;;;;23.75;20.75;;;;;3.20;95.12;100630.16;4988911;28;11542;-73
2021/12/25 01:05:43;;;;;;;;;28.00;24.00;;;;;2.99;95.04;100633.06;4986367;28;12330;-73
2021/12/25 01:08:10;;;;;;;;;20.00;19.50;;;;;3.00;94.73;100632.06;4993996;28;11721;-71
2021/12/25 01:10:38;;;;;;;;;28.00;23.25;;;;;2.97;94.54;100640.34;4986461;28;11632;-73
2021/12/25 01:13:16;;;;;;;;;20.75;16.75;;;;;2.82;94.98;100644.50;4993253;28;11628;-73
2021/12/25 01:18:54;;;;;;;;;16.75;16.00;;;;;2.81;95.35;100648.16;4995235;28;11696;-73
2021/12/25 01:21:48;;;;;;;;;27.00;23.00;;;;;2.92;95.61;100647.13;4985607;28;11509;-72
2021/12/25 01:24:32;;;;;;;;;23.00;21.25;;;;;3.01;95.04;100639.09;4995463;28;11610;-73
2021/12/25 01:32:56;;;;;;;;;25.00;19.00;;;;;3.03;94.65;100637.13;5008578;28;11596;-70
2021/12/25 01:36:58;;;;;;;;;22.25;20.50;;;;;3.06;94.64;100630.63;4993961;28;11518;-73
2021/12/25 01:39:19;;;;;;;;;18.00;16.00;;;;;3.00;94.88;100634.75;4997041;28;11621;-71
2021/12/25 01:42:08;;;;;;;;;26.00;23.75;;;;;2.84;94.00;100639.00;4993515;28;11700;-73
2021/12/25 01:47:55;;;;;;;;;19.50;19.50;;;;;2.68;94.53;100648.44;4995342;28;11543;-72
2021/12/25 01:50:27;;;;;;;;;16.75;16.50;;;;;2.61;94.77;100641.16;4969376;28;11596;-73
2021/12/25 01:52:56;;;;;;;;;27.75;25.00;;;;;2.66;94.81;100644.22;4990937;28;11554;-73
2021/12/25 01:55:29;;;;;;;;;21.50;18.00;;;;;2.81;94.50;100634.78;4985911;28;11656;-71
2021/12/25 01:57:59;;;;;;;;;27.00;21.00;;;;;2.83;94.25;100653.34;4994930;28;11598;-72
2021/12/25 02:00:25;;;;;;;;;19.50;18.75;;;;;2.80;93.80;100637.63;4994403;28;12398;-72
2021/12/25 02:02:53;;;;;;;;;26.00;22.75;;;;;2.83;93.49;100645.34;4992702;28;11540;-72
2021/12/25 02:05:20;;;;;;;;;24.75;17.00;;;;;2.83;92.73;100640.84;5010313;28;11669;-72
2021/12/25 02:07:49;;;;;;;;;22.00;19.00;;;;;2.83;93.27;100648.00;4999805;28;11663;-73
2021/12/25 02:10:17;;;;;;;;;27.50;26.50;;;;;2.75;92.64;100654.94;4986464;28;11669;-72
2021/12/25 02:12:47;;;;;;;;;24.75;20.75;;;;;2.52;92.54;100655.38;4994595;28;11586;-72
2021/12/25 02:15:34;;;;;;;;;22.25;20.00;;;;;2.60;94.50;100650.16;4986892;28;11673;-71
2021/12/25 02:18:15;;;;;;;;;23.75;23.25;;;;;2.55;94.59;100657.75;4985959;28;11724;-70
2021/12/25 02:21:09;;;;;;;;;29.50;19.00;;;;;2.57;94.31;100653.13;5010159;28;11583;-71
2021/12/25 02:23:36;;;;;;;;;28.50;22.00;;;;;2.47;93.74;100659.28;4992009;28;11573;-71
2021/12/25 02:26:04;;;;;;;;;32.00;24.00;;;;;2.40;94.27;100665.34;4986754;28;12609;-73
2021/12/25 02:28:31;;;;;;;;;29.75;22.50;;;;;2.58;94.69;100665.50;4989473;28;11650;-72
2021/12/25 02:31:04;;;;;;;;;28.50;25.50;;;;;2.52;94.25;100656.22;5005948;28;11624;-72
2021/12/25 02:33:30;;;;;;;;;27.25;25.00;;;;;2.52;93.84;100653.53;4996352;28;11579;-72
2021/12/25 02:35:57;;;;;;;;;27.75;22.75;;;;;2.42;93.82;100653.53;5006673;28;11635;-71
2021/12/25 02:38:25;;;;;;;;;35.00;26.25;;;;;2.35;93.74;100651.56;5005690;28;11604;-73
2021/12/25 02:40:52;;;;;;;;;29.00;23.00;;;;;2.38;94.77;100648.63;4989356;28;11630;-73
2021/12/25 02:43:19;;;;;;;;;26.00;22.50;;;;;2.41;94.67;100651.84;5004741;28;11583;-73
2021/12/25 02:45:46;;;;;;;;;27.00;23.75;;;;;2.30;93.55;100652.00;4989490;28;11585;-72
2021/12/25 02:48:16;;;;;;;;;27.50;26.25;;;;;2.31;93.17;100652.84;4988187;28;12440;-73
2021/12/25 02:50:44;;;;;;;;;26.50;21.00;;;;;2.24;93.45;100652.56;4989404;28;11720;-73
2021/12/25 02:53:12;;;;;;;;;29.00;23.00;;;;;2.17;93.72;100649.59;4994690;28;11599;-73
2021/12/25 02:55:41;;;;;;;;;27.75;23.75;;;;;2.19;94.29;100644.09;4995812;28;11612;-70
2021/12/25 02:58:09;;;;;;;;;24.75;22.75;;;;;2.28;94.53;100642.44;4990270;28;12354;-71
2021/12/25 03:00:50;;;;;;;;;29.75;26.00;;;;;2.23;94.17;100647.34;4997242;28;11642;-71
2021/12/25 03:03:17;;;;;;;;;25.50;19.50;;;;;2.12;93.49;100653.66;5016521;28;11577;-70
2021/12/25 03:05:44;;;;;;;;;26.25;24.00;;;;;2.04;93.50;100657.03;4997046;28;11635;-71
2021/12/25 03:08:12;;;;;;;;;24.00;20.75;;;;;2.11;94.08;100650.16;4999047;28;11613;-71
2021/12/25 03:10:49;;;;;;;;;25.50;22.00;;;;;2.02;93.37;100648.34;4997038;28;11591;-71
2021/12/25 03:13:29;;;;;;;;;27.75;24.00;;;;;2.00;93.02;100650.31;4998646;28;11553;-73
2021/12/25 03:15:57;;;;;;;;;27.00;19.75;;;;;1.89;92.99;100663.75;5011512;28;11634;-71
2021/12/25 03:18:29;;;;;;;;;20.00;16.00;;;;;1.97;93.23;100657.72;4990006;28;11623;-71
2021/12/25 03:21:03;;;;;;;;;14.75;13.50;;;;;1.93;93.49;100651.81;5008714;28;11649;-71
2021/12/25 03:23:32;;;;;;;;;26.50;17.50;;;;;1.98;93.44;100659.41;4997935;28;11585;-71
2021/12/25 03:26:00;;;;;;;;;32.25;25.50;;;;;1.82;92.56;100668.81;4979202;28;12370;-71
2021/12/25 03:28:30;;;;;;;;;19.00;19.00;;;;;1.87;92.41;100662.22;5011719;28;11625;-71
2021/12/25 03:31:01;;;;;;;;;26.25;22.75;;;;;1.75;92.70;100661.50;4994672;28;11614;-71
2021/12/25 03:33:28;;;;;;;;;20.00;20.00;;;;;1.73;92.47;100666.09;5010115;28;11716;-71
2021/12/25 03:35:55;;;;;;;;;26.50;23.50;;;;;1.73;92.38;100666.94;4989294;28;11670;-71
2021/12/25 03:38:22;;;;;;;;;23.75;22.00;;;;;1.76;93.45;100666.69;5005263;28;11634;-70
2021/12/25 03:40:50;;;;;;;;;17.00;13.50;;;;;1.76;93.02;100681.84;4998142;28;11693;-71
2021/12/25 03:43:18;;;;;;;;;20.00;16.00;;;;;1.87;92.81;100687.06;5005589;28;11702;-70
2021/12/25 03:45:46;;;;;;;;;19.25;15.50;;;;;1.94;92.36;100690.88;4997746;28;11595;-70
2021/12/25 03:48:31;;;;;;;;;27.75;19.75;;;;;1.87;92.27;100699.56;5003664;28;11621;-71
2021/12/25 03:59:04;;;;;;;;;18.75;17.00;;;;;1.60;91.24;100711.72;5011007;28;11600;-70
2021/12/25 04:04:26;;;;;;;;;19.25;15.75;;;;;1.72;90.71;100718.63;5004352;28;11736;-71
2021/12/25 04:07:28;;;;;;;;;24.00;19.75;;;;;1.62;89.87;100724.91;5011509;28;11576;-71
2021/12/25 04:09:41;;;;;;;;;20.25;17.50;;;;;1.56;89.73;100725.47;4986194;28;12395;-71
2021/12/25 04:12:11;;;;;;;;;19.50;16.25;;;;;1.57;90.79;100729.81;5013536;28;11621;-71
2021/12/25 04:14:39;;;;;;;;;17.50;16.00;;;;;1.66;90.48;100734.34;5005183;28;11584;-71
2021/12/25 04:17:07;;;;;;;;;15.50;14.00;;;;;1.56;90.17;100736.97;4996173;28;11790;-71
2021/12/25 04:19:36;;;;;;;;;15.00;15.00;;;;;1.54;89.65;100737.09;4993072;28;11562;-70
2021/12/25 04:22:09;;;;;;;;;13.00;11.00;;;;;1.36;88.97;100743.19;4986337;28;11611;-71
2021/12/25 04:24:40;;;;;;;;;15.25;12.25;;;;;1.32;89.07;100749.75;5003529;28;11596;-69
2021/12/25 04:27:11;;;;;;;;;12.75;11.00;;;;;1.23;88.74;100743.38;4997742;28;11591;-70
2021/12/25 04:29:48;;;;;;;;;14.50;10.50;;;;;1.28;88.77;100745.69;4997600;28;12288;-70
2021/12/25 04:49:26;;;;;;;;;11.75;9.25;;;;;1.10;87.34;100769.41;5003001;28;11579;-70
2021/12/25 05:03:10;;;;;;;;;5.00;4.00;;;;;0.83;87.71;100772.56;4994517;28;12297;-70
2021/12/25 05:05:48;;;;;;;;;6.25;4.25;;;;;0.57;87.42;100772.94;4994443;28;11562;-72
2021/12/25 05:08:22;;;;;;;;;6.50;3.00;;;;;0.74;87.76;100773.31;5002537;28;11541;-71
2021/12/25 05:10:48;;;;;;;;;5.50;5.50;;;;;0.71;87.49;100779.75;4983821;28;11578;-71
2021/12/25 05:13:15;;;;;;;;;5.00;4.50;;;;;0.49;86.40;100782.50;4994445;28;11528;-72
2021/12/25 05:15:42;;;;;;;;;3.50;1.00;;;;;0.62;87.16;100783.19;4990498;28;11516;-70
2021/12/25 05:18:09;;;;;;;;;2.00;2.00;;;;;0.51;86.35;100786.75;4978911;28;11569;-71
2021/12/25 05:20:35;;;;;;;;;8.25;3.50;;;;;0.73;86.67;100787.63;4988259;28;11560;-71
2021/12/25 05:23:02;;;;;;;;;4.75;4.75;;;;;0.81;85.73;100795.84;5011831;28;11523;-71
2021/12/25 05:25:29;;;;;;;;;3.00;3.00;;;;;0.73;85.80;100790.28;4994252;28;11480;-72
2021/12/25 05:28:00;;;;;;;;;3.25;3.25;;;;;0.77;85.86;100797.91;4971239;28;11608;-71
2021/12/25 05:30:28;;;;;;;;;2.50;2.00;;;;;0.75;85.32;100801.69;4997115;28;11535;-71
2021/12/25 05:33:30;;;;;;;;;3.00;3.00;;;;;0.51;83.90;100791.22;4989610;28;11544;-71
2021/12/25 05:36:08;;;;;;;;;4.75;4.25;;;;;0.50;84.47;100800.19;4994589;28;11558;-71
2021/12/25 05:38:58;;;;;;;;;4.50;4.50;;;;;0.44;83.80;100806.00;4997578;28;11557;-71
2021/12/25 05:41:29;;;;;;;;;2.00;2.00;;;;;0.43;83.96;100805.16;4991505;28;11596;-71
2021/12/25 05:43:57;;;;;;;;;4.25;3.00;;;;;0.36;84.49;100809.28;4988171;28;11612;-71
2021/12/25 05:46:42;;;;;;;;;2.50;2.50;;;;;0.45;83.78;100805.88;4989808;28;11551;-71
2021/12/25 05:49:10;;;;;;;;;2.00;2.00;;;;;0.36;82.63;100805.78;4994493;28;11537;-71
2021/12/25 05:51:53;;;;;;;;;5.00;2.00;;;;;0.40;83.48;100809.88;5003832;28;11504;-71
2021/12/25 05:54:56;;;;;;;;;2.00;2.00;;;;;0.16;82.88;100807.38;5005627;28;11526;-71
2021/12/25 05:57:45;;;;;;;;;4.25;2.00;;;;;0.10;83.43;100808.72;5002271;28;11505;-71
2021/12/25 06:00:20;;;;;;;;;2.50;2.00;;;;;-0.03;83.91;100810.66;5010158;28;11567;-71
2021/12/25 06:02:50;;;;;;;;;2.00;1.00;;;;;-0.03;83.68;100813.31;4970952;28;11645;-72
2021/12/25 06:05:20;;;;;;;;;2.75;2.75;;;;;-0.10;84.08;100825.44;4994031;28;11681;-71
2021/12/25 06:07:47;;;;;;;;;2.00;2.00;;;;;-0.02;84.42;100828.31;5002033;28;11538;-71
2021/12/25 06:10:13;;;;;;;;;5.50;4.25;;;;;0.05;84.12;100831.38;5003624;28;12324;-72
2021/12/25 06:12:41;;;;;;;;;1.00;1.00;;;;;-0.16;83.84;100842.72;5001918;28;11656;-71
2021/12/25 06:15:12;;;;;;;;;2.50;1.00;;;;;-0.05;83.90;100839.22;4997015;28;11560;-71
2021/12/25 06:17:52;;;;;;;;;3.50;2.00;;;;;-0.24;83.54;100846.97;4985781;28;11582;-71
2021/12/25 06:20:33;;;;;;;;;1.00;1.00;;;;;-0.29;83.15;100857.09;4995156;28;11511;-72
2021/12/25 06:23:37;;;;;;;;;4.00;1.75;;;;;-0.12;83.25;100860.13;4994167;28;12274;-72
2021/12/25 06:26:42;;;;;;;;;3.00;1.50;;;;;-0.15;83.03;100862.19;4992943;28;12289;-72
2021/12/25 06:29:32;;;;;;;;;1.00;1.00;;;;;-0.13;82.19;100860.25;5003390;28;11526;-72
2021/12/25 06:32:28;;;;;;;;;0.50;0.50;;;;;-0.28;81.21;100861.44;4997238;28;11526;-72
2021/12/25 06:35:20;;;;;;;;;1.25;1.25;;;;;-0.48;82.09;100855.88;5000484;28;11531;-72
2021/12/25 06:38:00;;;;;;;;;2.25;1.00;;;;;-0.39;82.54;100859.63;4994535;28;11656;-71
2021/12/25 06:40:53;;;;;;;;;2.00;0.50;;;;;-0.67;81.78;100861.75;5011157;28;11648;-71
2021/12/25 06:43:19;;;;;;;;;0.75;0.75;;;;;-0.59;82.16;100869.13;4994287;28;11598;-72
2021/12/25 06:45:46;;;;;;;;;0.00;0.00;;;;;-0.61;82.05;100863.06;5007298;28;11551;-71
2021/12/25 06:48:14;;;;;;;;;1.00;1.00;;;;;-0.44;82.14;100867.97;5004069;28;11601;-71
2021/12/25 06:51:00;;;;;;;;;0.75;0.75;;;;;-0.60;80.81;100866.59;5000252;28;11496;-71
2021/12/25 06:53:43;;;;;;;;;1.00;1.00;;;;;-0.57;81.58;100874.31;4973949;28;12249;-72
2021/12/25 06:56:22;;;;;;;;;1.00;1.00;;;;;-0.67;80.66;100871.53;4994319;28;11502;-72
2021/12/25 06:58:55;;;;;;;;;1.75;0.50;;;;;-0.75;81.29;100872.09;4985490;28;11543;-73
2021/12/25 07:01:22;;;;;;;;;2.00;0.00;;;;;-0.73;81.07;100877.31;4986344;28;11528;-72
2021/12/25 07:03:50;;;;;;;;;0.75;0.75;;;;;-0.67;80.43;100872.38;4994646;28;11586;-72
2021/12/25 07:06:54;;;;;;;;;0.00;0.00;;;;;-0.71;79.66;100878.88;5021275;28;11447;-72
2021/12/25 07:09:36;;;;;;;;;0.00;0.00;;;;;-0.81;79.18;100883.19;5026798;28;11626;-72
2021/12/25 07:12:31;;;;;;;;;3.00;0.75;;;;;-0.98;80.18;100883.63;5015813;28;12380;-71
2021/12/25 07:15:16;;;;;;;;;0.00;0.00;;;;;-1.02;80.36;100890.94;4989399;28;12239;-71
2021/12/25 07:17:59;;;;;;;;;0.00;0.00;;;;;-1.05;80.23;100882.34;4989975;28;11562;-72
2021/12/25 07:20:45;;;;;;;;;0.50;0.00;;;;;-1.19;79.55;100886.03;4996627;28;11753;-72
2021/12/25 07:23:25;;;;;;;;;1.00;0.00;;;;;-1.04;80.69;100887.56;4999201;28;11527;-71
2021/12/25 07:26:01;;;;;;;;;0.00;0.00;;;;;-0.98;80.02;100896.91;4988484;28;11515;-72
2021/12/25 07:28:37;;;;;;;;;0.00;0.00;;;;;-1.16;79.51;100906.22;4975673;28;11720;-72
2021/12/25 07:31:04;;;;;;;;;0.00;0.00;;;;;-1.16;79.32;100901.75;4996899;28;11624;-72
2021/12/25 07:33:32;;;;;;;;;0.00;0.00;;;;;-1.16;79.04;100906.22;4993563;28;12278;-72
2021/12/25 07:35:58;;;;;;;;;0.25;0.25;;;;;-1.18;79.53;100902.84;4988723;28;11706;-71
2021/12/25 07:38:25;;;;;;;;;0.00;0.00;;;;;-1.31;79.97;100909.03;4998428;28;11533;-72
2021/12/25 07:40:51;;;;;;;;;0.00;0.00;;;;;-1.38;79.19;100923.72;4999121;28;11498;-71
2021/12/25 07:43:18;;;;;;;;;0.00;0.00;;;;;-1.30;79.86;100908.06;4993802;28;11533;-71
2021/12/25 07:46:14;;;;;;;;;0.00;0.00;;;;;-1.34;79.18;100917.22;5000433;28;11528;-71
2021/12/25 07:48:42;;;;;;;;;0.00;0.00;;;;;-1.26;78.64;100919.31;4998817;28;11578;-71
2021/12/25 07:51:08;;;;;;;;;0.00;0.00;;;;;-1.27;78.55;100918.47;4997934;28;11698;-70
2021/12/25 07:53:35;;;;;;;;;0.00;0.00;;;;;-1.52;78.18;100915.03;4994065;28;11514;-70
2021/12/25 07:56:01;;;;;;;;;0.75;0.00;;;;;-1.36;79.30;100926.25;4980922;28;12220;-71
2021/12/25 07:58:27;;;;;;;;;0.00;0.00;;;;;-1.43;78.95;100928.50;4996956;28;11767;-70
2021/12/25 08:00:54;;;;;;;;;0.00;0.00;;;;;-1.33;78.86;100931.34;4987755;28;11547;-73
2021/12/25 08:03:21;;;;;;;;;1.00;0.00;;;;;-1.27;78.60;100923.75;4997669;28;11596;-73
2021/12/25 08:05:48;;;;;;;;;1.00;1.00;;;;;-1.51;78.67;100920.22;4998192;28;11535;-71
2021/12/25 08:08:15;;;;;;;;;0.00;0.00;;;;;-1.51;78.95;100932.66;4996252;28;11542;-70
2021/12/25 08:10:43;;;;;;;;;0.50;0.50;;;;;-1.61;79.34;100933.31;4992923;28;11533;-70
2021/12/25 08:13:13;;;;;;;;;0.00;0.00;;;;;-1.44;78.67;100939.25;4987421;28;11486;-71
2021/12/25 08:15:40;;;;;;;;;0.00;0.00;;;;;-1.39;78.29;100932.63;4996966;28;11523;-70
2021/12/25 08:18:07;;;;;;;;;0.00;0.00;;;;;-1.48;78.08;100940.41;4996382;28;11530;-70
2021/12/25 08:21:13;;;;;;;;;0.00;0.00;;;;;-1.48;78.95;100938.63;5023639;28;11417;-70
2021/12/25 08:24:03;;;;;;;;;1.50;1.00;;;;;-1.39;77.18;100939.75;5007875;28;11408;-70
2021/12/25 08:26:49;;;;;;;;;0.00;0.00;;;;;-1.40;76.82;100953.97;5002869;28;11516;-70
2021/12/25 08:29:39;;;;;;;;;0.00;0.00;;;;;-1.33;76.84;100958.75;5003767;28;11648;-71
2021/12/25 08:32:27;;;;;;;;;0.00;0.00;;;;;-1.38;76.23;100958.22;4995839;28;11503;-71
2021/12/25 08:35:19;;;;;;;;;0.00;0.00;;;;;-1.35;76.87;100957.16;4994475;28;11533;-71
2021/12/25 08:37:46;;;;;;;;;0.75;0.00;;;;;-1.32;76.64;100964.91;4996529;28;11665;-71
2021/12/25 08:40:14;;;;;;;;;0.75;0.75;;;;;-1.24;76.36;100970.50;4997604;28;11557;-71
2021/12/25 08:42:46;;;;;;;;;3.00;3.00;;;;;1.08;92.01;100969.47;4996498;28;11633;-70
2021/12/25 08:45:38;;;;;;;;;0.00;0.00;;;;;-0.74;74.97;100977.47;4996975;28;11553;-71
2021/12/25 08:48:02;;;;;;;;;0.00;0.00;;;;;-0.92;74.34;100984.13;4997319;28;11526;-71
2021/12/25 08:50:28;;;;;;;;;0.25;0.00;;;;;-0.95;73.16;100985.22;5012969;28;11550;-70
2021/12/25 08:52:55;;;;;;;;;0.00;0.00;;;;;-0.81;73.73;100986.00;5008760;28;11527;-70
2021/12/25 08:55:22;;;;;;;;;1.00;0.50;;;;;-0.94;72.69;100988.72;5004868;28;11537;-70
2021/12/25 08:57:49;;;;;;;;;0.00;0.00;;;;;-0.87;71.00;100991.75;4992717;28;11547;-71
2021/12/25 09:00:16;;;;;;;;;0.00;0.00;;;;;-0.77;70.39;100987.47;4997978;28;11564;-71
2021/12/25 09:02:43;;;;;;;;;1.00;0.00;;;;;-0.83;69.14;100990.56;4994867;28;11544;-71
2021/12/25 09:05:10;;;;;;;;;0.00;0.00;;;;;-0.95;68.04;100995.00;4996244;28;11537;-71
2021/12/25 09:07:36;;;;;;;;;0.00;0.00;;;;;-0.97;67.25;100997.75;4996919;28;11639;-73
2021/12/25 09:10:04;;;;;;;;;0.00;0.00;;;;;-0.90;66.82;100998.16;4989994;28;11535;-71
2021/12/25 09:12:33;;;;;;;;;0.00;0.00;;;;;-0.87;67.08;100991.75;4988792;28;11554;-72
2021/12/25 09:14:59;;;;;;;;;0.00;0.00;;;;;-0.77;66.14;101000.75;4996913;28;11685;-72
2021/12/25 09:17:25;;;;;;;;;0.00;0.00;;;;;-0.69;65.50;100998.41;4999520;28;11609;-70
2021/12/25 09:19:52;;;;;;;;;0.00;0.00;;;;;-0.69;65.22;101003.72;4985115;28;11615;-72
2021/12/25 09:22:19;;;;;;;;;0.00;0.00;;;;;-0.81;64.66;101002.78;4985729;28;11531;-71
2021/12/25 09:24:45;;;;;;;;;0.00;0.00;;;;;-0.53;64.74;101008.72;4984639;28;11549;-71
2021/12/25 09:27:11;;;;;;;;;0.00;0.00;;;;;-0.47;64.54;101019.78;4998452;28;11655;-72
2021/12/25 09:29:38;;;;;;;;;0.00;0.00;;;;;-0.48;62.98;101014.56;4984197;28;11518;-71
2021/12/25 09:32:05;;;;;;;;;0.00;0.00;;;;;-0.45;63.10;101012.53;4999587;28;11514;-69
2021/12/25 09:34:32;;;;;;;;;0.00;0.00;;;;;-0.42;62.26;101022.94;5001356;28;11513;-70
2021/12/25 09:36:58;;;;;;;;;0.00;0.00;;;;;-0.53;60.70;101032.66;4985543;28;11520;-71
2021/12/25 09:39:25;;;;;;;;;0.00;0.00;;;;;-0.59;61.30;101023.31;4986290;28;11555;-71
2021/12/25 09:41:51;;;;;;;;;0.00;0.00;;;;;-0.65;62.15;101021.97;4984057;28;12378;-70
2021/12/25 09:44:18;;;;;;;;;0.00;0.00;;;;;-0.49;62.40;101029.69;5000663;28;11525;-71
2021/12/25 09:46:45;;;;;;;;;0.00;0.00;;;;;-0.45;62.04;101032.97;4983607;28;12495;-71
2021/12/25 09:49:11;;;;;;;;;0.00;0.00;;;;;-0.37;60.94;101027.91;4997758;28;11618;-71
2021/12/25 09:51:39;;;;;;;;;0.00;0.00;;;;;-0.48;60.63;101034.03;5001722;28;11553;-73
2021/12/25 09:54:11;;;;;;;;;0.00;0.00;;;;;-0.43;60.45;101029.22;4996767;28;11548;-70
2021/12/25 09:56:40;;;;;;;;;0.00;0.00;;;;;-0.38;59.55;101037.69;4998064;28;11554;-71
2021/12/25 09:59:10;;;;;;;;;0.00;0.00;;;;;-0.27;59.23;101049.34;4983229;28;11624;-70
2021/12/25 10:01:40;;;;;;;;;0.00;0.00;;;;;-0.06;59.25;101045.91;4980858;28;11548;-72
2021/12/25 10:04:09;;;;;;;;;0.00;0.00;;;;;0.12;58.99;101048.16;4999650;28;11529;-71
2021/12/25 10:06:44;;;;;;;;;0.00;0.00;;;;;0.09;58.02;101048.41;4983208;28;12255;-73
2021/12/25 10:09:11;;;;;;;;;0.00;0.00;;;;;0.11;57.39;101055.28;4983814;28;11632;-72
2021/12/25 10:11:37;;;;;;;;;1.50;0.00;;;;;0.08;56.38;101050.22;4985100;28;11673;-72
2021/12/25 10:14:04;;;;;;;;;0.00;0.00;;;;;0.02;56.74;101053.34;4983699;28;11641;-71
2021/12/25 10:16:32;;;;;;;;;0.00;0.00;;;;;-0.03;55.01;101052.81;4998201;28;11642;-71
2021/12/25 10:19:17;;;;;;;;;0.00;0.00;;;;;-0.03;54.47;101051.00;4985554;28;11555;-72
2021/12/25 10:21:44;;;;;;;;;1.00;0.00;;;;;-0.04;54.95;101041.31;4985288;28;11629;-73
2021/12/25 10:24:25;;;;;;;;;0.00;0.00;;;;;-0.02;55.51;101050.03;4984899;28;11528;-73
2021/12/25 10:26:52;;;;;;;;;0.00;0.00;;;;;-0.06;55.19;101042.41;4979535;28;11685;-72
2021/12/25 10:29:20;;;;;;;;;0.00;0.00;;;;;-0.21;53.75;101046.25;4983309;28;11653;-72
2021/12/25 10:31:48;;;;;;;;;0.00;0.00;;;;;-0.04;54.00;101040.47;4984808;28;11688;-70
2021/12/25 10:34:24;;;;;;;;;0.00;0.00;;;;;0.07;53.02;101039.69;4985543;28;11523;-72
2021/12/25 10:36:51;;;;;;;;;0.00;0.00;;;;;0.16;53.21;101037.16;4980939;28;11529;-74
2021/12/25 10:39:23;;;;;;;;;1.00;0.00;;;;;0.23;54.99;101021.56;4981879;28;11571;-73
2021/12/25 10:41:53;;;;;;;;;0.00;0.00;;;;;0.06;51.79;101019.34;4984023;28;11693;-73
2021/12/25 10:44:23;;;;;;;;;0.00;0.00;;;;;0.01;51.03;101024.19;4987321;28;11526;-71
2021/12/25 10:47:01;;;;;;;;;0.25;0.00;;;;;-0.07;51.04;101017.63;4987477;28;11583;-72
2021/12/25 10:49:33;;;;;;;;;0.00;0.00;;;;;-0.20;51.22;101013.34;4988182;28;11564;-71
2021/12/25 10:52:20;;;;;;;;;0.00;0.00;;;;;-0.22;50.58;101009.97;4987659;28;11539;-72
2021/12/25 10:55:18;;;;;;;;;0.00;0.00;;;;;-0.28;50.62;101018.38;5001119;28;11515;-73
2021/12/25 10:57:53;;;;;;;;;0.00;0.00;;;;;-0.22;51.86;101013.47;4986748;28;11666;-73
2021/12/25 11:00:20;;;;;;;;;0.25;0.00;;;;;-0.12;51.86;101001.16;5002792;28;12469;-71
2021/12/25 11:03:08;;;;;;;;;0.00;0.00;;;;;-0.04;51.86;101009.41;5003462;28;11632;-72
2021/12/25 11:05:46;;;;;;;;;0.00;0.00;;;;;-0.21;50.18;101004.53;4978854;28;11520;-70
2021/12/25 11:08:17;;;;;;;;;0.00;0.00;;;;;-0.12;50.53;101002.97;4986228;28;11695;-71
2021/12/25 11:10:53;;;;;;;;;0.00;0.00;;;;;-0.03;50.47;100999.59;4986460;28;11630;-71
2021/12/25 11:13:29;;;;;;;;;0.00;0.00;;;;;0.26;50.32;101005.38;4989026;28;11612;-71
2021/12/25 11:16:27;;;;;;;;;0.00;0.00;;;;;0.20;49.37;101005.81;4989437;28;11478;-71
2021/12/25 11:21:31;;;;;;;;;0.50;0.00;;;;;0.17;49.03;101006.06;4985602;28;11519;-71
2021/12/25 11:24:05;;;;;;;;;0.25;0.00;;;;;0.30;49.61;100999.69;4985729;28;11618;-71
2021/12/25 11:26:32;;;;;;;;;0.00;0.00;;;;;0.22;48.81;101007.41;5001810;28;12232;-71
2021/12/25 11:28:58;;;;;;;;;0.00;0.00;;;;;0.17;48.60;101006.91;4985695;28;11670;-72
2021/12/25 11:31:24;;;;;;;;;0.00;0.00;;;;;0.38;47.67;101004.41;4987051;28;11609;-72
2021/12/25 11:33:51;;;;;;;;;0.00;0.00;;;;;0.23;47.61;101006.44;4988263;28;11493;-71
2021/12/25 11:36:18;;;;;;;;;0.00;0.00;;;;;0.43;47.44;100999.56;4986779;28;11609;-72
2021/12/25 11:38:44;;;;;;;;;0.00;0.00;;;;;0.29;47.70;101005.97;4988317;28;12270;-72
2021/12/25 11:41:12;;;;;;;;;0.00;0.00;;;;;0.63;47.74;100999.81;4988829;28;11670;-70
2021/12/25 11:43:43;;;;;;;;;0.75;0.00;;;;;0.62;46.84;100996.31;4987820;28;11644;-71
2021/12/25 11:46:09;;;;;;;;;0.00;0.00;;;;;0.78;46.58;101002.13;4970460;28;11637;-71
2021/12/25 11:48:41;;;;;;;;;0.00;0.00;;;;;1.30;51.19;100999.72;4986931;28;11651;-72
2021/12/25 11:51:27;;;;;;;;;0.00;0.00;;;;;0.87;46.21;101005.84;4986702;28;11658;-72
2021/12/25 11:56:50;;;;;;;;;0.00;0.00;;;;;0.84;46.12;100995.44;4986330;28;11520;-72
2021/12/25 11:59:18;;;;;;;;;0.00;0.00;;;;;0.79;45.44;100990.50;4986391;28;11646;-71
2021/12/25 12:01:49;;;;;;;;;0.00;0.00;;;;;0.62;46.33;100993.63;4986957;28;11455;-72
2021/12/25 12:04:19;;;;;;;;;0.00;0.00;;;;;0.78;46.56;100994.13;4994456;28;11508;-71
2021/12/25 12:06:46;;;;;;;;;0.00;0.00;;;;;0.64;46.70;100997.03;4994162;28;11611;-71
2021/12/25 12:09:15;;;;;;;;;0.00;0.00;;;;;0.55;46.55;100997.75;4997242;28;11546;-72
2021/12/25 12:11:44;;;;;;;;;0.00;0.00;;;;;0.63;46.45;100990.00;4994276;28;11562;-71
2021/12/25 12:14:25;;;;;;;;;0.00;0.00;;;;;0.50;46.07;100992.81;5010895;28;11560;-71
2021/12/25 12:17:17;;;;;;;;;0.00;0.00;;;;;0.55;46.62;100990.63;4994349;28;12311;-72
2021/12/25 12:19:51;;;;;;;;;0.00;0.00;;;;;0.44;46.49;100992.41;5005215;28;12384;-72
2021/12/25 12:22:30;;;;;;;;;0.00;0.00;;;;;0.47;45.43;101005.50;4987963;28;11643;-71
2021/12/25 12:27:35;;;;;;;;;0.00;0.00;;;;;0.53;46.51;100992.56;4996652;28;12410;-71
2021/12/25 12:30:06;;;;;;;;;0.00;0.00;;;;;0.54;46.63;100999.59;4992203;28;11573;-71
2021/12/25 12:32:45;;;;;;;;;0.00;0.00;;;;;0.39;46.11;100999.91;4993811;28;11544;-71
2021/12/25 12:35:32;;;;;;;;;0.00;0.00;;;;;0.44;45.44;101003.06;4998658;28;11527;-72
2021/12/25 12:38:35;;;;;;;;;0.00;0.00;;;;;0.55;45.82;101001.28;5004077;28;11455;-71
2021/12/25 12:41:24;;;;;;;;;0.00;0.00;;;;;0.56;44.42;100996.78;4995308;28;11523;-71
2021/12/25 12:44:05;;;;;;;;;0.00;0.00;;;;;0.55;44.37;101008.41;4994565;28;11485;-71
2021/12/25 12:46:50;;;;;;;;;0.00;0.00;;;;;0.57;44.61;100990.50;4996797;28;11617;-71
2021/12/25 12:49:33;;;;;;;;;0.00;0.00;;;;;0.61;44.79;100990.13;4986285;28;11516;-72
2021/12/25 12:52:24;;;;;;;;;0.00;0.00;;;;;0.67;43.82;100985.28;4992399;28;11557;-72
2021/12/25 12:55:28;;;;;;;;;0.00;0.00;;;;;0.54;44.27;100994.25;5004882;28;11521;-71
2021/12/25 12:58:13;;;;;;;;;0.00;0.00;;;;;0.67;45.19;100996.78;4985234;28;11535;-71